Aviation Digital Data Service (ADDS)

Output produced by METARs form (0148 UTC 18 October 2017)
found at http://www.aviationweather.gov/adds/metars/
 
METAR text: KILE 180056Z AUTO 14004KT 10SM CLR 17/07 A3016 RMK AO2 SLP234 T01670072
Conditions at: KILE (KILLEEN MUNI , TX, US) observed 0056 UTC 18 October 2017
Temperature: 16.7°C (62°F)
Dewpoint: 7.2°C (45°F) [RH = 53%]
Pressure (altimeter): 30.16 inches Hg (1021.4 mb)
[Sea-level pressure: 1023.4 mb]
Winds: from the SE (140 degrees) at 5 MPH (4 knots; 2.1 m/s)
Visibility: 10 or more miles (16+ km)
Ceiling: at least 12,000 feet AGL
Clouds: sky clear below 12,000 feet AGL
Weather: automated observation with no human augmentation;
there may or may not be significant weather present at this time